Time;durP1;ratioP1;P1;durP2;ratioP2;P2;SDS_P1;SDS_P2;PMS_P1;PMS_P2;Temp;Humidity;BMP_temperature;BMP_pressure;BME280_temperature;BME280_humidity;BME280_pressure;Samples;Min_cycle;Max_cycle;Signal;HPM_P1;HPM_P2
2022/12/13 00:01:40;;;;;;;27.33;15.50;;;-6.30;99.90;;;;;;4949313;28;20204;-89
2022/12/13 00:04:07;;;;;;;28.13;14.13;;;-6.30;99.90;;;;;;4957313;28;20187;-89
2022/12/13 00:06:34;;;;;;;30.10;14.53;;;-6.30;99.90;;;;;;4956508;28;20225;-89
2022/12/13 00:09:00;;;;;;;31.30;14.53;;;-6.40;99.90;;;;;;4963861;28;20196;-89
2022/12/13 00:11:27;;;;;;;27.40;13.57;;;-6.50;99.90;;;;;;4968113;28;20219;-89
2022/12/13 00:13:54;;;;;;;31.63;14.73;;;-6.50;99.90;;;;;;4957914;28;20267;-89
2022/12/13 00:16:22;;;;;;;29.70;13.27;;;-6.50;99.90;;;;;;4957221;28;20184;-89
2022/12/13 00:18:59;;;;;;;29.00;14.07;;;-6.50;99.90;;;;;;4957468;28;20264;-89
2022/12/13 00:21:28;;;;;;;25.83;13.93;;;-6.60;99.90;;;;;;4957167;28;20188;-89
2022/12/13 00:23:54;;;;;;;28.40;14.27;;;-6.60;99.90;;;;;;4973455;28;20231;-89
2022/12/13 00:26:24;;;;;;;24.20;13.43;;;-6.60;99.90;;;;;;4957042;28;20188;-89
2022/12/13 00:28:51;;;;;;;31.00;14.93;;;-6.70;99.90;;;;;;4957181;28;20242;-89
2022/12/13 00:31:19;;;;;;;29.57;13.90;;;-6.70;99.90;;;;;;4957012;28;20212;-89
2022/12/13 00:33:45;;;;;;;29.87;14.30;;;-6.60;99.90;;;;;;4957498;28;20188;-89
2022/12/13 00:36:11;;;;;;;27.97;14.13;;;-6.60;99.90;;;;;;4957132;28;20192;-89
2022/12/13 00:38:37;;;;;;;26.80;14.50;;;-6.60;99.90;;;;;;4956835;28;20204;-89
2022/12/13 00:41:18;;;;;;;27.70;14.23;;;-6.60;99.90;;;;;;4943979;28;20212;-89
2022/12/13 00:43:45;;;;;;;26.77;14.20;;;-6.70;99.90;;;;;;4953853;29;20196;-89
2022/12/13 00:46:16;;;;;;;27.03;14.67;;;-6.70;99.90;;;;;;4956700;28;20184;-89
2022/12/13 00:48:44;;;;;;;26.40;14.10;;;-6.70;99.90;;;;;;4956871;28;20188;-89
2022/12/13 00:51:11;;;;;;;26.93;14.63;;;-6.70;99.90;;;;;;4956800;28;20224;-89
2022/12/13 00:53:37;;;;;;;30.43;15.50;;;-6.80;99.90;;;;;;4956754;28;20194;-89
2022/12/13 00:56:08;;;;;;;27.47;14.67;;;-6.80;99.90;;;;;;4956520;28;20195;-89
2022/12/13 00:58:34;;;;;;;28.37;14.30;;;-6.90;99.90;;;;;;4957062;28;20362;-89
2022/12/13 01:01:09;;;;;;;30.77;15.40;;;-6.90;99.90;;;;;;4956489;28;20181;-89
2022/12/13 01:03:36;;;;;;;32.57;15.47;;;-7.00;99.90;;;;;;4957002;28;20188;-88
2022/12/13 01:06:26;;;;;;;33.63;15.13;;;-7.00;99.90;;;;;;4956674;28;20195;-89
2022/12/13 01:08:52;;;;;;;26.70;13.77;;;-7.00;99.90;;;;;;4956417;28;20192;-89
2022/12/13 01:11:18;;;;;;;27.33;13.43;;;-7.00;99.90;;;;;;4956242;28;20227;-89
2022/12/13 01:13:46;;;;;;;26.53;13.57;;;-6.90;99.90;;;;;;4956435;28;20187;-89
2022/12/13 01:16:12;;;;;;;33.30;14.97;;;-7.00;99.90;;;;;;4953665;28;20604;-89
2022/12/13 01:18:39;;;;;;;29.30;14.10;;;-7.00;99.90;;;;;;4937988;29;20213;-89
2022/12/13 01:21:18;;;;;;;24.43;13.57;;;-7.10;99.90;;;;;;4938299;29;20198;-89
2022/12/13 01:23:44;;;;;;;26.87;12.80;;;-7.10;99.90;;;;;;4938332;29;20185;-89
2022/12/13 01:26:16;;;;;;;28.80;14.33;;;-7.10;99.90;;;;;;4945879;28;20224;-89
2022/12/13 01:28:42;;;;;;;28.37;13.70;;;-7.10;99.90;;;;;;4957481;28;20180;-89
2022/12/13 01:31:11;;;;;;;30.07;13.37;;;-7.20;99.90;;;;;;4957867;28;20287;-89
2022/12/13 01:33:37;;;;;;;28.03;13.40;;;-7.30;99.90;;;;;;4957226;28;20176;-89
2022/12/13 01:36:06;;;;;;;28.40;14.10;;;-7.20;99.90;;;;;;4956226;28;20187;-89
2022/12/13 01:38:33;;;;;;;25.70;13.27;;;-7.20;99.90;;;;;;4955685;28;20188;-89
2022/12/13 01:40:59;;;;;;;26.37;14.63;;;-7.20;99.90;;;;;;4955873;28;20180;-89
2022/12/13 01:43:50;;;;;;;25.10;13.73;;;-7.10;99.90;;;;;;4952470;28;20193;-89
2022/12/13 01:46:17;;;;;;;30.03;14.83;;;-7.10;99.90;;;;;;4940303;28;20184;-89
2022/12/13 01:49:09;;;;;;;26.27;14.47;;;-7.10;99.90;;;;;;4955599;28;20189;-89
2022/12/13 01:51:44;;;;;;;27.77;14.03;;;-7.10;99.90;;;;;;4955763;28;20232;-89
2022/12/13 01:54:15;;;;;;;22.57;13.13;;;-7.20;99.90;;;;;;4955448;28;20200;-89
2022/12/13 01:56:51;;;;;;;30.70;14.20;;;-7.10;99.90;;;;;;4955882;28;20239;-89
2022/12/13 01:59:18;;;;;;;26.50;13.43;;;-7.20;99.90;;;;;;4955272;28;20191;-89
2022/12/13 02:01:47;;;;;;;26.80;13.73;;;-7.30;99.90;;;;;;4956175;28;20185;-89
2022/12/13 02:04:18;;;;;;;26.40;13.33;;;-7.30;99.90;;;;;;4955381;28;20180;-89
2022/12/13 02:06:45;;;;;;;30.30;14.53;;;-7.30;99.90;;;;;;4955467;28;20254;-89
2022/12/13 02:09:12;;;;;;;28.70;14.27;;;-7.30;99.90;;;;;;4955230;28;20279;-89
2022/12/13 02:11:41;;;;;;;28.00;14.67;;;-7.30;99.90;;;;;;4955686;28;20239;-89
2022/12/13 02:14:08;;;;;;;34.83;15.23;;;-7.30;99.90;;;;;;4955443;28;20192;-88
2022/12/13 02:17:00;;;;;;;25.80;13.37;;;-7.30;99.90;;;;;;4955337;28;20209;-89
2022/12/13 02:19:56;;;;;;;31.13;13.83;;;-7.30;99.90;;;;;;4955191;28;20180;-89
2022/12/13 02:22:31;;;;;;;26.83;13.90;;;-7.30;99.90;;;;;;4955474;28;20184;-89
2022/12/13 02:25:20;;;;;;;31.40;14.50;;;-7.40;99.90;;;;;;4944774;28;20267;-89
2022/12/13 02:28:01;;;;;;;26.33;13.77;;;-7.40;99.90;;;;;;4941372;28;20209;-89
2022/12/13 02:30:43;;;;;;;27.93;14.17;;;-7.40;99.90;;;;;;4951454;28;20208;-89
2022/12/13 02:33:34;;;;;;;30.67;14.97;;;-7.40;99.90;;;;;;4955262;28;20211;-89
2022/12/13 02:36:31;;;;;;;26.37;13.73;;;-7.40;99.90;;;;;;4954715;28;20181;-90
2022/12/13 02:39:05;;;;;;;28.43;12.87;;;-7.40;99.90;;;;;;4948093;28;20246;-89
2022/12/13 02:41:37;;;;;;;29.77;13.60;;;-7.40;99.90;;;;;;4966448;28;20188;-89
2022/12/13 02:44:16;;;;;;;27.27;14.10;;;-7.50;99.90;;;;;;4955290;28;20189;-89
2022/12/13 02:46:51;;;;;;;27.67;14.07;;;-7.50;99.90;;;;;;4954581;28;20232;-89
2022/12/13 02:49:19;;;;;;;28.63;14.87;;;-7.50;99.90;;;;;;4955066;28;20267;-89
2022/12/13 02:51:46;;;;;;;24.87;13.47;;;-7.60;99.90;;;;;;4954913;28;20265;-89
2022/12/13 02:54:12;;;;;;;28.30;13.97;;;-7.60;99.90;;;;;;4939216;28;20200;-89
2022/12/13 02:56:38;;;;;;;24.00;13.30;;;-7.60;99.90;;;;;;4955156;28;20205;-89
2022/12/13 02:59:14;;;;;;;30.83;14.63;;;-7.60;99.90;;;;;;4957996;28;20196;-89
2022/12/13 03:02:11;;;;;;;26.73;13.37;;;-7.60;99.90;;;;;;4973450;28;20203;-89
2022/12/13 03:06:28;;;;;;;23.87;13.20;;;-7.60;99.90;;;;;;4959317;28;20188;-89
2022/12/13 03:08:00;;;;;;;30.47;12.80;;;-7.60;99.90;;;;;;4953343;28;20224;-89
2022/12/13 03:10:51;;;;;;;28.40;12.50;;;-7.60;99.90;;;;;;4950184;28;20223;-89
2022/12/13 03:13:58;;;;;;;22.93;12.57;;;-7.60;99.90;;;;;;4954531;28;20222;-89
2022/12/13 03:16:27;;;;;;;21.73;11.80;;;-7.70;99.90;;;;;;4938531;28;20188;-89
2022/12/13 03:18:57;;;;;;;28.47;13.20;;;-7.70;99.90;;;;;;4951233;28;20175;-89
2022/12/13 03:21:23;;;;;;;26.33;13.33;;;-7.70;99.90;;;;;;4951573;28;20192;-89
2022/12/13 03:23:49;;;;;;;24.07;13.33;;;-7.70;99.90;;;;;;4954269;28;20183;-89
2022/12/13 03:26:20;;;;;;;24.43;12.93;;;-7.70;99.90;;;;;;4954515;28;20180;-89
2022/12/13 03:28:46;;;;;;;25.93;12.47;;;-7.70;99.90;;;;;;4954205;28;20195;-89
2022/12/13 03:31:12;;;;;;;20.70;12.03;;;-7.70;99.90;;;;;;4954686;28;20224;-89
2022/12/13 03:33:38;;;;;;;27.70;12.53;;;-7.70;99.90;;;;;;4970585;28;20641;-89
2022/12/13 03:36:12;;;;;;;25.97;12.27;;;-7.70;99.90;;;;;;4954982;28;20271;-89
2022/12/13 03:38:39;;;;;;;22.10;13.67;;;-7.80;99.90;;;;;;4938067;28;20196;-89
2022/12/13 03:41:10;;;;;;;24.20;11.53;;;-7.80;99.90;;;;;;4955195;28;20189;-89
2022/12/13 03:43:38;;;;;;;25.23;13.40;;;-7.80;99.90;;;;;;4958174;28;20212;-89
2022/12/13 03:46:05;;;;;;;30.70;13.70;;;-7.80;99.90;;;;;;4957786;28;20189;-89
2022/12/13 03:48:31;;;;;;;22.67;11.47;;;-7.80;99.90;;;;;;4958028;28;20586;-89
2022/12/13 03:50:57;;;;;;;27.53;12.87;;;-7.80;99.90;;;;;;4956657;28;20231;-89
2022/12/13 03:53:24;;;;;;;24.17;13.03;;;-7.80;99.90;;;;;;4957801;28;20188;-89
2022/12/13 03:55:50;;;;;;;30.43;15.17;;;-7.80;99.90;;;;;;4957466;28;20188;-89
2022/12/13 03:58:17;;;;;;;31.30;13.90;;;-7.80;99.90;;;;;;4957669;28;20204;-89
2022/12/13 04:00:43;;;;;;;26.10;13.40;;;-7.80;99.90;;;;;;4946563;28;20215;-89
2022/12/13 04:03:10;;;;;;;34.77;15.17;;;-7.80;99.90;;;;;;4941940;28;20208;-89
2022/12/13 04:05:36;;;;;;;31.23;14.83;;;-7.80;99.90;;;;;;4957539;28;20529;-89
2022/12/13 04:08:02;;;;;;;33.83;14.23;;;-7.80;99.90;;;;;;4957529;28;20201;-89
2022/12/13 04:10:29;;;;;;;30.47;14.10;;;-7.80;99.90;;;;;;4953879;29;20224;-89
2022/12/13 04:15:47;;;;;;;24.57;12.47;;;-7.80;99.90;;;;;;4973813;28;20180;-89
2022/12/13 04:18:18;;;;;;;23.70;13.03;;;-7.80;99.90;;;;;;4953964;28;20205;-89
2022/12/13 04:20:44;;;;;;;32.17;13.83;;;-7.80;99.90;;;;;;4938293;29;20196;-89
2022/12/13 04:23:10;;;;;;;27.70;13.77;;;-7.80;99.90;;;;;;4943421;28;20189;-89
2022/12/13 04:25:38;;;;;;;25.00;12.70;;;-7.90;99.90;;;;;;4957515;28;20196;-89
2022/12/13 04:28:05;;;;;;;23.23;12.37;;;-7.90;99.90;;;;;;4957974;28;20197;-89
2022/12/13 04:30:32;;;;;;;24.67;12.57;;;-8.00;99.90;;;;;;4957929;28;20239;-88
2022/12/13 04:32:59;;;;;;;25.00;11.73;;;-7.90;99.90;;;;;;4957185;28;20188;-89
2022/12/13 04:35:25;;;;;;;25.03;12.03;;;-8.00;99.90;;;;;;4957220;28;20181;-89
2022/12/13 04:37:51;;;;;;;23.97;11.57;;;-8.00;99.90;;;;;;4956981;28;20262;-89
2022/12/13 04:40:19;;;;;;;24.00;12.07;;;-8.00;99.90;;;;;;4974126;28;20192;-88
2022/12/13 04:42:45;;;;;;;27.60;11.97;;;-8.00;99.90;;;;;;4977326;28;20192;-89
2022/12/13 04:45:16;;;;;;;24.83;12.07;;;-8.00;99.90;;;;;;4957439;28;20325;-89
2022/12/13 04:47:42;;;;;;;24.13;12.00;;;-8.00;99.90;;;;;;4957868;28;20201;-89
2022/12/13 04:50:08;;;;;;;24.33;12.63;;;-8.00;99.90;;;;;;4953969;28;20184;-89
2022/12/13 04:52:34;;;;;;;29.50;12.97;;;-8.10;99.90;;;;;;4958606;28;20267;-88
2022/12/13 04:55:00;;;;;;;27.93;12.63;;;-8.20;99.90;;;;;;4955947;28;20256;-89
2022/12/13 04:57:26;;;;;;;21.97;12.03;;;-8.30;99.90;;;;;;4956960;28;20204;-89
2022/12/13 04:59:52;;;;;;;23.70;12.60;;;-8.30;99.90;;;;;;4956527;28;20193;-89
2022/12/13 05:02:18;;;;;;;23.37;12.17;;;-8.20;99.90;;;;;;4956233;28;20181;-89
2022/12/13 05:04:45;;;;;;;24.87;12.30;;;-8.20;99.90;;;;;;4956522;28;20271;-89
2022/12/13 05:07:11;;;;;;;25.33;12.57;;;-8.20;99.90;;;;;;4956579;28;20212;-88
2022/12/13 05:09:37;;;;;;;21.63;11.90;;;-8.20;99.90;;;;;;4956114;28;20211;-88
2022/12/13 05:12:03;;;;;;;30.53;13.30;;;-8.30;99.90;;;;;;4951953;29;20232;-89
2022/12/13 05:14:30;;;;;;;27.73;13.90;;;-8.30;99.90;;;;;;4940432;28;20183;-89
2022/12/13 05:16:57;;;;;;;28.30;13.93;;;-8.40;99.90;;;;;;4956244;28;20208;-88
2022/12/13 05:19:23;;;;;;;25.30;13.00;;;-8.40;99.90;;;;;;4956399;28;20712;-89
2022/12/13 05:21:48;;;;;;;26.13;12.00;;;-8.40;99.90;;;;;;4954826;28;20275;-89
2022/12/13 05:24:14;;;;;;;25.87;13.80;;;-8.40;99.90;;;;;;4956606;28;20241;-88
2022/12/13 05:26:40;;;;;;;24.97;12.80;;;-8.40;99.90;;;;;;4955524;28;20204;-89
2022/12/13 05:29:06;;;;;;;28.47;13.03;;;-8.50;99.90;;;;;;4960418;28;20211;-89
2022/12/13 05:31:32;;;;;;;27.40;12.53;;;-8.50;99.90;;;;;;4939412;28;20200;-89
2022/12/13 05:33:58;;;;;;;29.27;13.37;;;-8.60;99.90;;;;;;4955066;28;20181;-89
2022/12/13 05:36:24;;;;;;;36.40;13.70;;;-8.60;99.90;;;;;;4955541;28;20196;-89
2022/12/13 05:38:51;;;;;;;30.47;14.10;;;-8.60;99.90;;;;;;4955115;28;20290;-89
2022/12/13 05:41:21;;;;;;;28.93;13.43;;;-8.60;99.90;;;;;;4971329;28;20185;-88
2022/12/13 05:43:47;;;;;;;26.93;13.63;;;-8.60;99.90;;;;;;4953956;28;20234;-89
2022/12/13 05:46:12;;;;;;;29.53;14.07;;;-8.60;99.90;;;;;;4955971;28;20184;-89
2022/12/13 05:48:39;;;;;;;28.80;13.07;;;-8.60;99.90;;;;;;4941381;28;20558;-89
2022/12/13 05:51:05;;;;;;;24.57;12.90;;;-8.60;99.90;;;;;;4956697;28;20611;-90
2022/12/13 05:53:31;;;;;;;26.90;13.40;;;-8.60;99.90;;;;;;4955557;28;20324;-89
2022/12/13 05:56:01;;;;;;;32.77;13.80;;;-8.60;99.90;;;;;;4956062;28;20271;-89
2022/12/13 05:58:27;;;;;;;29.03;13.87;;;-8.60;99.90;;;;;;4955522;28;20197;-89
2022/12/13 06:00:53;;;;;;;23.17;12.93;;;-8.60;99.90;;;;;;4955515;28;20189;-89
2022/12/13 06:03:19;;;;;;;24.17;12.77;;;-8.60;99.90;;;;;;4955374;28;20195;-89
2022/12/13 06:05:54;;;;;;;23.30;12.03;;;-8.60;99.90;;;;;;4955608;28;20188;-89
2022/12/13 06:08:20;;;;;;;27.80;13.23;;;-8.70;99.90;;;;;;4959415;28;20223;-89
2022/12/13 06:10:54;;;;;;;25.73;13.00;;;-8.70;99.90;;;;;;4974584;28;20706;-89
2022/12/13 06:13:20;;;;;;;26.07;12.93;;;-8.70;99.90;;;;;;4962110;28;20177;-90
2022/12/13 06:15:46;;;;;;;27.00;13.43;;;-8.70;99.90;;;;;;4955877;28;20192;-89
2022/12/13 06:18:12;;;;;;;23.77;12.47;;;-8.70;99.90;;;;;;4955242;28;20699;-89
2022/12/13 06:20:38;;;;;;;24.73;13.20;;;-8.70;99.90;;;;;;4948218;28;20267;-89
2022/12/13 06:23:04;;;;;;;29.93;13.50;;;-8.70;99.90;;;;;;4938940;28;20191;-90
2022/12/13 06:25:30;;;;;;;31.77;13.43;;;-8.70;99.90;;;;;;4955307;28;20689;-89
2022/12/13 06:27:56;;;;;;;33.30;14.60;;;-8.70;99.90;;;;;;4954814;28;20299;-89
2022/12/13 06:30:22;;;;;;;28.23;14.87;;;-8.70;99.90;;;;;;4955473;28;20211;-89
2022/12/13 06:32:49;;;;;;;30.30;15.67;;;-8.80;99.90;;;;;;4955575;28;20192;-89
2022/12/13 06:35:15;;;;;;;39.77;18.93;;;-8.70;99.90;;;;;;4955119;28;20188;-89
2022/12/13 06:37:41;;;;;;;42.10;20.20;;;-8.70;99.90;;;;;;4964306;28;20200;-89
2022/12/13 06:40:09;;;;;;;46.63;22.43;;;-8.70;99.90;;;;;;4961627;28;20241;-89
2022/12/13 06:42:35;;;;;;;36.03;18.90;;;-8.70;99.90;;;;;;4961059;28;20638;-89
2022/12/13 06:45:01;;;;;;;35.43;14.57;;;-8.70;99.90;;;;;;4963041;28;20265;-88
2022/12/13 06:47:36;;;;;;;27.27;13.20;;;-8.60;99.90;;;;;;4976199;28;20195;-89
2022/12/13 06:50:08;;;;;;;27.13;13.30;;;-8.60;99.90;;;;;;4967053;28;20180;-88
2022/12/13 06:52:35;;;;;;;24.93;13.10;;;-8.60;99.90;;;;;;4951556;28;20263;-88
2022/12/13 06:55:01;;;;;;;28.90;12.83;;;-8.50;99.90;;;;;;4957153;28;20189;-88
2022/12/13 06:57:27;;;;;;;30.20;13.77;;;-8.50;99.90;;;;;;4951882;28;20333;-89
2022/12/13 06:59:53;;;;;;;27.47;12.87;;;-8.50;99.90;;;;;;4945390;29;20190;-89
2022/12/13 07:02:19;;;;;;;26.07;12.37;;;-8.40;99.90;;;;;;4945598;28;20194;-90
2022/12/13 07:04:45;;;;;;;26.43;13.73;;;-8.40;99.90;;;;;;4962515;28;20187;-88
2022/12/13 07:07:12;;;;;;;28.80;14.10;;;-8.40;99.90;;;;;;4947486;28;20213;-83
2022/12/13 07:09:37;;;;;;;27.00;14.10;;;-8.40;99.90;;;;;;4949813;28;20195;-89
2022/12/13 07:12:04;;;;;;;32.70;15.07;;;-8.40;99.90;;;;;;4957618;28;20201;-89
2022/12/13 07:14:30;;;;;;;30.00;16.20;;;-8.40;99.90;;;;;;4961615;28;20188;-88
2022/12/13 07:16:58;;;;;;;30.93;15.57;;;-8.50;99.90;;;;;;4988063;28;20207;-89
2022/12/13 07:19:24;;;;;;;34.23;16.67;;;-8.50;99.90;;;;;;4974344;28;20207;-89
2022/12/13 07:21:51;;;;;;;32.90;15.80;;;-8.60;99.90;;;;;;4962546;28;20180;-89
2022/12/13 07:24:17;;;;;;;32.80;14.77;;;-8.60;99.90;;;;;;4960545;28;20193;-89
2022/12/13 07:26:43;;;;;;;26.50;13.43;;;-8.60;99.90;;;;;;4959113;28;20207;-89
2022/12/13 07:29:09;;;;;;;25.80;13.33;;;-8.60;99.90;;;;;;4958783;28;20184;-89
2022/12/13 07:31:36;;;;;;;29.60;12.87;;;-8.60;99.90;;;;;;4958427;28;20209;-89
2022/12/13 07:34:02;;;;;;;33.23;15.23;;;-8.60;99.90;;;;;;4958825;28;20188;-89
2022/12/13 07:36:28;;;;;;;30.10;15.20;;;-8.50;99.90;;;;;;4958647;28;20193;-88
2022/12/13 07:38:56;;;;;;;30.97;14.30;;;-8.50;99.90;;;;;;4955552;28;20188;-89
2022/12/13 07:41:23;;;;;;;30.10;15.40;;;-8.40;99.90;;;;;;4958813;28;20180;-89
2022/12/13 07:43:49;;;;;;;31.30;16.33;;;-8.40;99.90;;;;;;4958398;28;20196;-89
2022/12/13 07:46:15;;;;;;;32.70;16.60;;;-8.40;99.90;;;;;;4958200;28;20185;-89
2022/12/13 07:48:41;;;;;;;34.10;16.53;;;-8.40;99.90;;;;;;4958150;28;20668;-89
2022/12/13 07:51:13;;;;;;;38.80;17.57;;;-8.30;99.90;;;;;;4958194;28;20215;-89
2022/12/13 07:53:40;;;;;;;35.57;17.70;;;-8.30;99.90;;;;;;4947153;28;20326;-88
2022/12/13 07:56:10;;;;;;;37.37;17.30;;;-8.20;99.90;;;;;;4958947;28;20255;-89
2022/12/13 07:58:37;;;;;;;32.43;15.70;;;-8.20;99.90;;;;;;4965740;28;20184;-88
2022/12/13 08:01:10;;;;;;;29.00;14.40;;;-8.20;99.90;;;;;;4949672;28;20193;-88
2022/12/13 08:03:38;;;;;;;26.47;13.80;;;-8.20;99.90;;;;;;4982171;28;20184;-89
2022/12/13 08:06:07;;;;;;;26.77;13.57;;;-8.10;99.90;;;;;;4966783;28;20192;-89
2022/12/13 08:08:34;;;;;;;26.70;13.13;;;-8.00;99.90;;;;;;4951285;28;20181;-88
2022/12/13 08:11:05;;;;;;;25.50;12.53;;;-8.00;99.90;;;;;;4968749;28;20236;-89
2022/12/13 08:13:32;;;;;;;22.57;12.63;;;-8.10;99.90;;;;;;4967842;28;20208;-89
2022/12/13 08:16:03;;;;;;;26.03;12.57;;;-8.10;99.90;;;;;;4972604;28;20204;-89
2022/12/13 08:18:29;;;;;;;30.07;13.03;;;-8.10;99.90;;;;;;4972162;28;20223;-89
2022/12/13 08:21:00;;;;;;;25.33;12.63;;;-8.00;99.90;;;;;;4968906;28;20211;-88
2022/12/13 08:23:26;;;;;;;27.33;13.97;;;-8.00;99.90;;;;;;4964904;28;20192;-89
2022/12/13 08:25:54;;;;;;;29.10;13.90;;;-8.00;99.90;;;;;;4965673;28;20176;-89
2022/12/13 08:28:22;;;;;;;25.10;13.03;;;-8.00;99.90;;;;;;4949977;28;20200;-89
2022/12/13 08:30:49;;;;;;;30.40;15.93;;;-8.00;99.90;;;;;;4965762;28;20305;-89
2022/12/13 08:33:16;;;;;;;30.30;14.73;;;-7.90;99.90;;;;;;4964237;28;20188;-89
2022/12/13 08:35:42;;;;;;;28.20;15.03;;;-7.80;99.90;;;;;;4956186;28;20662;-89
2022/12/13 08:38:08;;;;;;;26.70;13.50;;;-7.70;99.90;;;;;;4949833;28;20204;-89
2022/12/13 08:40:35;;;;;;;26.53;13.57;;;-7.60;99.90;;;;;;4965753;28;20180;-89
2022/12/13 08:43:01;;;;;;;31.60;14.23;;;-7.60;99.90;;;;;;4966474;28;20188;-88
2022/12/13 08:45:28;;;;;;;28.50;15.10;;;-7.50;99.90;;;;;;4968380;28;20370;-89
2022/12/13 08:47:58;;;;;;;28.60;14.50;;;-7.50;99.90;;;;;;4947397;28;20251;-89
2022/12/13 08:50:24;;;;;;;32.10;14.07;;;-7.40;99.90;;;;;;4960570;28;20661;-89
2022/12/13 08:52:51;;;;;;;29.73;15.60;;;-7.40;99.90;;;;;;4944476;28;20211;-89
2022/12/13 08:55:18;;;;;;;30.70;15.53;;;-7.40;99.90;;;;;;4941370;28;20279;-89
2022/12/13 08:57:53;;;;;;;37.10;16.43;;;-7.30;99.90;;;;;;4949154;28;20192;-89
2022/12/13 09:00:22;;;;;;;36.13;16.30;;;-7.30;99.90;;;;;;4965711;28;20191;-89
2022/12/13 09:02:58;;;;;;;60.73;20.03;;;-7.20;99.90;;;;;;4967005;28;20191;-89
2022/12/13 09:05:27;;;;;;;42.00;18.10;;;-7.20;99.90;;;;;;4968116;28;20180;-88
2022/12/13 09:07:56;;;;;;;36.77;16.50;;;-7.10;99.90;;;;;;4965870;28;20255;-89
2022/12/13 09:10:23;;;;;;;36.07;16.83;;;-7.00;99.90;;;;;;4950338;28;20176;-88
2022/12/13 09:12:50;;;;;;;31.77;16.30;;;-7.00;99.90;;;;;;4964700;28;20212;-89
2022/12/13 09:15:16;;;;;;;28.13;16.20;;;-6.90;99.90;;;;;;4948028;28;20188;-88
2022/12/13 09:17:45;;;;;;;36.70;16.90;;;-6.90;99.90;;;;;;4965473;28;20207;-89
2022/12/13 09:20:15;;;;;;;34.20;16.80;;;-6.90;99.90;;;;;;4967162;28;20198;-89
2022/12/13 09:22:42;;;;;;;40.03;17.50;;;-6.80;99.90;;;;;;4965115;28;20247;-89
2022/12/13 09:25:08;;;;;;;32.40;16.03;;;-6.70;99.90;;;;;;4943606;28;20203;-88
2022/12/13 09:27:34;;;;;;;36.73;17.67;;;-6.70;99.90;;;;;;4962263;28;20212;-88
2022/12/13 09:30:01;;;;;;;36.10;18.37;;;-6.70;99.90;;;;;;4961578;28;20324;-89
2022/12/13 09:32:27;;;;;;;38.03;17.70;;;-6.60;99.90;;;;;;4957409;28;20338;-89
2022/12/13 09:34:53;;;;;;;45.50;23.00;;;-6.60;99.90;;;;;;4938614;28;20181;-89
2022/12/13 09:37:19;;;;;;;41.93;20.73;;;-6.50;99.90;;;;;;4965283;28;20291;-89
2022/12/13 09:39:46;;;;;;;37.07;19.07;;;-6.50;99.90;;;;;;4960124;28;20184;-89
2022/12/13 09:42:22;;;;;;;44.63;20.00;;;-6.50;99.90;;;;;;4962859;28;20188;-89
2022/12/13 09:45:01;;;;;;;37.53;17.83;;;-6.50;99.90;;;;;;4944875;28;20188;-89
2022/12/13 09:47:42;;;;;;;30.70;16.17;;;-6.50;99.90;;;;;;4968103;28;20211;-89
2022/12/13 09:50:25;;;;;;;35.60;16.70;;;-6.60;99.90;;;;;;4961773;28;21519;-89
2022/12/13 09:52:51;;;;;;;30.47;14.73;;;-6.50;99.90;;;;;;4948693;28;20177;-89
2022/12/13 09:55:29;;;;;;;26.23;14.90;;;-6.50;99.90;;;;;;4970303;28;20199;-89
2022/12/13 09:57:57;;;;;;;27.77;14.80;;;-6.40;99.90;;;;;;4970960;28;20202;-89
2022/12/13 10:00:27;;;;;;;30.10;15.13;;;-6.40;99.90;;;;;;4970113;28;20617;-89
2022/12/13 10:02:57;;;;;;;28.87;14.57;;;-6.20;99.90;;;;;;4983966;28;20215;-89
2022/12/13 10:05:35;;;;;;;29.37;15.53;;;-6.10;99.90;;;;;;4975199;28;20200;-89
2022/12/13 10:08:11;;;;;;;31.03;15.73;;;-6.00;99.90;;;;;;4968713;28;20715;-89
2022/12/13 10:10:37;;;;;;;32.03;15.27;;;-6.00;99.90;;;;;;4957630;28;20262;-89
2022/12/13 10:13:37;;;;;;;31.97;17.43;;;-5.90;99.90;;;;;;4972728;28;20184;-89
2022/12/13 10:16:27;;;;;;;41.10;20.60;;;-5.70;99.90;;;;;;4953221;28;20862;-89
2022/12/13 10:18:54;;;;;;;42.40;22.17;;;-5.50;99.90;;;;;;4970602;28;20299;-89
2022/12/13 10:21:36;;;;;;;38.37;21.37;;;-5.50;99.90;;;;;;4949261;28;20255;-77
2022/12/13 10:24:12;;;;;;;44.03;20.97;;;-5.40;99.90;;;;;;4971540;28;20169;-89
2022/12/13 10:26:38;;;;;;;43.43;21.43;;;-5.30;99.90;;;;;;4951581;28;20291;-88
2022/12/13 10:29:05;;;;;;;42.00;21.47;;;-5.20;99.90;;;;;;4960204;28;20271;-89
2022/12/13 10:31:43;;;;;;;35.23;21.57;;;-5.10;99.90;;;;;;4971771;28;20203;-89
2022/12/13 10:34:20;;;;;;;37.83;20.93;;;-5.00;99.90;;;;;;4973741;28;20180;-89
2022/12/13 10:36:46;;;;;;;41.43;21.27;;;-5.00;99.90;;;;;;4973384;28;20543;-89
2022/12/13 10:39:34;;;;;;;40.93;21.50;;;-4.90;99.90;;;;;;4969637;28;20184;-89
2022/12/13 10:42:11;;;;;;;40.13;21.17;;;-4.80;99.90;;;;;;4973203;28;20176;-89
2022/12/13 10:44:37;;;;;;;34.77;20.20;;;-4.70;99.90;;;;;;4972552;28;20181;-89
2022/12/13 10:47:20;;;;;;;36.40;19.03;;;-4.60;99.90;;;;;;4972472;28;20210;-88
2022/12/13 10:50:00;;;;;;;38.97;18.90;;;-4.50;99.90;;;;;;4978387;28;20204;-88
2022/12/13 10:52:37;;;;;;;35.80;19.03;;;-4.40;99.90;;;;;;4964971;28;20216;-89
2022/12/13 10:55:23;;;;;;;30.70;17.47;;;-4.40;99.90;;;;;;4978136;28;20207;-89
2022/12/13 10:57:58;;;;;;;35.43;19.73;;;-4.30;99.90;;;;;;4973532;28;20298;-89
2022/12/13 11:00:50;;;;;;;35.43;19.73;;;-4.30;99.90;;;;;;4961722;28;20198;-89
2022/12/13 11:03:33;;;;;;;32.57;18.67;;;-4.20;99.90;;;;;;4975733;28;20211;-89
2022/12/13 11:06:16;;;;;;;39.47;18.37;;;-4.10;99.90;;;;;;4959742;28;20226;-89
2022/12/13 11:08:45;;;;;;;31.73;16.63;;;-4.10;99.90;;;;;;4947115;28;20196;-89
2022/12/13 11:11:26;;;;;;;34.80;18.57;;;-4.00;99.90;;;;;;4968528;28;20215;-89
2022/12/13 11:14:02;;;;;;;32.70;17.87;;;-3.90;99.90;;;;;;4967101;28;20207;-88
2022/12/13 11:16:39;;;;;;;35.10;18.53;;;-3.90;99.90;;;;;;4958397;28;20214;-89
2022/12/13 11:19:24;;;;;;;33.47;17.83;;;-3.80;99.90;;;;;;4958858;28;20263;-89
2022/12/13 11:21:51;;;;;;;39.47;20.23;;;-3.70;99.90;;;;;;4967918;28;20195;-89
2022/12/13 11:24:26;;;;;;;32.60;18.00;;;-3.60;99.90;;;;;;4970001;28;20188;-89
2022/12/13 11:26:59;;;;;;;37.47;18.70;;;-3.60;99.90;;;;;;4964988;28;20200;-89
2022/12/13 11:29:38;;;;;;;29.90;18.00;;;-3.60;99.90;;;;;;4969428;28;20246;-89
2022/12/13 11:32:04;;;;;;;33.87;18.60;;;-3.40;99.90;;;;;;4963781;28;20205;-89
2022/12/13 11:35:02;;;;;;;33.50;19.17;;;-3.30;99.90;;;;;;4989699;28;20581;-89
2022/12/13 11:37:40;;;;;;;36.70;21.23;;;-3.20;99.90;;;;;;4953679;28;20212;-89
2022/12/13 11:40:15;;;;;;;39.27;21.37;;;-3.00;99.90;;;;;;4971652;28;20191;-90
2022/12/13 11:42:49;;;;;;;40.00;23.43;;;-2.90;99.90;;;;;;4972056;28;20644;-90
2022/12/13 11:45:21;;;;;;;36.97;21.70;;;-2.80;99.90;;;;;;4971202;28;20543;-90
2022/12/13 11:47:49;;;;;;;36.10;20.77;;;-2.70;99.90;;;;;;4970728;28;20299;-90
2022/12/13 11:50:25;;;;;;;38.47;21.50;;;-2.60;99.90;;;;;;4942589;28;20264;-90
2022/12/13 11:52:54;;;;;;;35.27;19.97;;;-2.60;99.90;;;;;;4958701;28;20312;-90
2022/12/13 11:55:20;;;;;;;34.50;20.70;;;-2.50;99.90;;;;;;4959208;28;20260;-90
2022/12/13 11:57:56;;;;;;;34.03;21.03;;;-2.50;99.90;;;;;;4956864;28;20202;-90
2022/12/13 12:00:35;;;;;;;38.07;21.40;;;-2.40;99.90;;;;;;4956616;28;20176;-90
2022/12/13 12:03:42;;;;;;;34.70;19.67;;;-2.30;99.90;;;;;;4958033;28;20184;-90
2022/12/13 12:06:17;;;;;;;31.80;18.83;;;-2.20;99.90;;;;;;4961682;28;20181;-90
2022/12/13 12:08:56;;;;;;;34.77;19.43;;;-2.10;99.90;;;;;;4959710;28;20176;-90
2022/12/13 12:11:45;;;;;;;36.87;19.53;;;-2.10;99.90;;;;;;4960170;28;20291;-89
2022/12/13 12:14:21;;;;;;;32.37;19.33;;;-2.00;99.90;;;;;;4960580;28;20184;-90
2022/12/13 12:16:53;;;;;;;32.17;17.63;;;-1.90;99.90;;;;;;4960126;28;20196;-90
2022/12/13 12:19:35;;;;;;;29.30;18.43;;;-1.90;99.90;;;;;;4959710;28;20190;-90
2022/12/13 12:22:30;;;;;;;38.97;21.33;;;-1.80;99.90;;;;;;4959761;28;20180;-90
2022/12/13 12:25:29;;;;;;;36.83;20.33;;;-1.70;99.90;;;;;;4941861;28;20185;-90
2022/12/13 12:28:01;;;;;;;38.03;19.97;;;-1.70;99.90;;;;;;4940186;28;20522;-89
2022/12/13 12:30:48;;;;;;;37.07;20.30;;;-1.70;99.90;;;;;;4940742;29;20185;-90
2022/12/13 12:33:44;;;;;;;32.50;18.77;;;-1.60;99.90;;;;;;4940813;29;20165;-90
2022/12/13 12:36:46;;;;;;;35.33;18.83;;;-1.50;99.90;;;;;;4951992;28;20236;-91
2022/12/13 12:39:34;;;;;;;31.50;19.07;;;-1.50;99.90;;;;;;4951471;28;20233;-90
2022/12/13 12:42:20;;;;;;;36.90;20.17;;;-1.30;99.90;;;;;;4950099;28;20258;-90
2022/12/13 12:45:26;;;;;;;34.60;19.90;;;-1.30;99.90;;;;;;4937777;28;20248;-89
2022/12/13 12:48:07;;;;;;;33.40;19.97;;;-1.20;99.90;;;;;;4946461;28;20295;-90
2022/12/13 12:50:55;;;;;;;37.53;20.23;;;-1.20;99.90;;;;;;4957360;28;20173;-90
2022/12/13 12:53:59;;;;;;;38.17;21.03;;;-1.10;99.90;;;;;;4950364;28;20177;-90